Time;durP1;ratioP1;P1;durP2;ratioP2;P2;SDS_P1;SDS_P2;PMS_P1;PMS_P2;Temp;Humidity;BMP_temperature;BMP_pressure;BME280_temperature;BME280_humidity;BME280_pressure;Samples;Min_cycle;Max_cycle;Signal;HPM_P1;HPM_P2
2022/01/14 00:02:14;;;;;;;;;;;6.00;99.90;;;;;;5155166;27;19926;-70
2022/01/14 00:04:40;;;;;;;;;;;6.10;99.90;;;;;;5139552;27;19933;-68
2022/01/14 00:07:05;;;;;;;;;;;6.00;99.90;;;;;;5132082;27;20317;-67
2022/01/14 00:09:33;;;;;;;;;;;6.00;99.90;;;;;;5118950;27;19923;-69
2022/01/14 00:12:00;;;;;;;;;;;6.00;99.90;;;;;;5135021;27;19934;-73
2022/01/14 00:17:02;;;;;;;;;;;6.00;99.90;;;;;;5155114;27;19923;-68
2022/01/14 00:19:27;;;;;;;;;;;6.00;99.90;;;;;;5136556;27;19923;-68
2022/01/14 00:21:53;;;;;;;;;;;6.00;99.90;;;;;;5134480;27;20392;-70
2022/01/14 00:34:38;;;;;;;;;;;6.10;99.90;;;;;;5135608;27;19938;-69
2022/01/14 00:37:04;;;;;;;;;;;6.00;99.90;;;;;;5134474;27;19923;-68
2022/01/14 00:39:30;;;;;;;;;;;6.00;99.90;;;;;;5151766;27;19965;-69
2022/01/14 00:41:55;;;;;;;;;;;6.00;99.90;;;;;;5155374;27;19934;-67
2022/01/14 00:44:21;;;;;;;;;;;6.00;99.90;;;;;;5172941;27;20443;-68
2022/01/14 00:46:48;;;;;;;;;;;6.00;99.90;;;;;;5152524;27;20412;-70
2022/01/14 00:49:14;;;;;;;;;;;6.00;99.90;;;;;;5143094;27;19968;-70
2022/01/14 00:51:40;;;;;;;;;;;6.00;99.90;;;;;;5152690;27;19933;-69
2022/01/14 00:54:06;;;;;;;;;;;6.00;99.90;;;;;;5152635;27;19927;-69
2022/01/14 00:56:45;;;;;;;;;;;6.00;99.90;;;;;;5125250;27;19919;-69
2022/01/14 00:59:14;;;;;;;;;;;6.00;99.90;;;;;;5135320;27;20041;-70
2022/01/14 01:01:42;;;;;;;;;;;6.00;99.90;;;;;;5117290;27;19938;-69
2022/01/14 01:04:08;;;;;;;;;;;6.00;99.90;;;;;;5116839;27;19931;-68
2022/01/14 01:06:34;;;;;;;;;;;6.00;99.90;;;;;;5121909;27;19982;-69
2022/01/14 01:09:00;;;;;;;;;;;6.00;99.90;;;;;;5151153;27;19970;-69
2022/01/14 01:11:31;;;;;;;;;;;5.90;99.90;;;;;;5134806;27;19927;-69
2022/01/14 01:14:10;;;;;;;;;;;5.90;99.90;;;;;;5134328;27;20358;-68
2022/01/14 01:16:35;;;;;;;;;;;5.90;99.90;;;;;;5164505;27;19929;-69
2022/01/14 01:19:01;;;;;;;;;;;5.90;99.90;;;;;;5134188;27;19923;-68
2022/01/14 01:21:26;;;;;;;;;;;5.90;99.90;;;;;;5148788;27;19923;-67
2022/01/14 01:23:52;;;;;;;;;;;5.90;99.90;;;;;;5173195;27;19926;-68
2022/01/14 01:26:28;;;;;;;;;;;5.90;99.90;;;;;;5142484;27;19966;-68
2022/01/14 01:31:35;;;;;;;;;;;5.90;99.90;;;;;;5116579;27;20022;-69
2022/01/14 01:34:05;;;;;;;;;;;5.90;99.90;;;;;;5134120;27;19927;-69
2022/01/14 01:36:31;;;;;;;;;;;5.90;99.90;;;;;;5139697;27;19993;-68
2022/01/14 01:38:56;;;;;;;;;;;5.90;99.90;;;;;;5171362;27;19966;-69
2022/01/14 01:41:22;;;;;;;;;;;6.00;99.90;;;;;;5154029;27;19927;-68
2022/01/14 01:43:53;;;;;;;;;;;5.90;99.90;;;;;;5154388;27;20009;-68
2022/01/14 01:46:20;;;;;;;;;;;5.90;99.90;;;;;;5149355;27;19923;-68
2022/01/14 01:48:50;;;;;;;;;;;5.90;99.90;;;;;;5144029;27;19950;-69
2022/01/14 01:51:16;;;;;;;;;;;6.00;99.90;;;;;;5154687;27;19922;-68
2022/01/14 01:53:42;;;;;;;;;;;6.00;99.90;;;;;;5153865;27;19991;-68
2022/01/14 01:56:08;;;;;;;;;;;6.00;99.90;;;;;;5151421;27;19927;-68
2022/01/14 01:58:34;;;;;;;;;;;6.00;99.90;;;;;;5135785;27;20372;-69
2022/01/14 02:01:02;;;;;;;;;;;6.00;99.90;;;;;;5154366;27;20283;-68
2022/01/14 02:03:28;;;;;;;;;;;6.00;99.90;;;;;;5132757;27;19923;-69
2022/01/14 02:05:53;;;;;;;;;;;6.00;99.90;;;;;;5136683;27;19923;-67
2022/01/14 02:08:19;;;;;;;;;;;6.00;99.90;;;;;;5156941;27;20265;-68
2022/01/14 02:10:45;;;;;;;;;;;6.00;99.90;;;;;;5174585;27;19994;-68
2022/01/14 02:13:11;;;;;;;;;;;6.00;99.90;;;;;;5149600;27;19927;-69
2022/01/14 02:15:46;;;;;;;;;;;6.10;99.90;;;;;;5155213;27;20068;-69
2022/01/14 02:23:31;;;;;;;;;;;6.00;99.90;;;;;;5136448;27;19962;-69
2022/01/14 02:25:57;;;;;;;;;;;6.10;99.90;;;;;;5136957;27;19926;-69
2022/01/14 02:28:22;;;;;;;;;;;6.00;99.90;;;;;;5156594;27;20329;-69
2022/01/14 02:30:49;;;;;;;;;;;6.00;99.90;;;;;;5130347;27;19927;-69
2022/01/14 02:33:16;;;;;;;;;;;6.10;99.90;;;;;;5153987;27;19931;-68
2022/01/14 02:35:43;;;;;;;;;;;6.10;99.90;;;;;;5136249;27;19927;-70
2022/01/14 02:38:10;;;;;;;;;;;6.10;99.90;;;;;;5138245;27;19980;-68
2022/01/14 02:40:36;;;;;;;;;;;6.10;99.90;;;;;;5153109;27;20039;-68
2022/01/14 02:43:02;;;;;;;;;;;6.10;99.90;;;;;;5161493;27;19933;-69
2022/01/14 02:45:31;;;;;;;;;;;6.10;99.90;;;;;;5156069;27;19918;-69
2022/01/14 02:47:56;;;;;;;;;;;6.10;99.90;;;;;;5175817;27;19925;-69
2022/01/14 02:50:24;;;;;;;;;;;6.10;99.90;;;;;;5123044;27;19927;-69
2022/01/14 02:55:21;;;;;;;;;;;6.10;99.90;;;;;;5136298;27;20618;-69
2022/01/14 02:57:51;;;;;;;;;;;6.10;99.90;;;;;;5173761;27;19933;-68
2022/01/14 03:00:17;;;;;;;;;;;6.10;99.90;;;;;;5146769;27;19973;-69
2022/01/14 03:02:45;;;;;;;;;;;6.10;99.90;;;;;;5154234;27;19931;-69
2022/01/14 03:05:11;;;;;;;;;;;6.10;99.90;;;;;;5153084;27;20370;-69
2022/01/14 03:07:37;;;;;;;;;;;6.10;99.90;;;;;;5135978;27;19952;-70
2022/01/14 03:10:03;;;;;;;;;;;6.10;99.90;;;;;;5142431;27;20001;-68
2022/01/14 03:12:29;;;;;;;;;;;6.10;99.90;;;;;;5172653;27;20368;-69
2022/01/14 03:14:55;;;;;;;;;;;6.10;99.90;;;;;;5156589;27;20275;-69
2022/01/14 03:17:20;;;;;;;;;;;6.10;99.90;;;;;;5156614;27;20010;-69
2022/01/14 03:19:47;;;;;;;;;;;6.10;99.90;;;;;;5154638;27;20315;-70
2022/01/14 03:22:23;;;;;;;;;;;6.20;99.90;;;;;;5121268;27;19927;-70
2022/01/14 03:27:14;;;;;;;;;;;6.20;99.90;;;;;;5135898;27;19923;-69
2022/01/14 03:29:40;;;;;;;;;;;6.20;99.90;;;;;;5153417;27;19930;-69
2022/01/14 03:32:06;;;;;;;;;;;6.20;99.90;;;;;;5143524;27;19926;-69
2022/01/14 03:34:32;;;;;;;;;;;6.20;99.90;;;;;;5174854;27;19923;-70
2022/01/14 03:36:58;;;;;;;;;;;6.20;99.90;;;;;;5174585;27;19934;-69
2022/01/14 03:39:24;;;;;;;;;;;6.20;99.90;;;;;;5174765;27;19931;-69
2022/01/14 03:41:49;;;;;;;;;;;6.20;99.90;;;;;;5152332;27;19933;-70
2022/01/14 03:44:15;;;;;;;;;;;6.20;99.90;;;;;;5117924;27;19927;-69
2022/01/14 03:46:41;;;;;;;;;;;6.30;99.90;;;;;;5135135;27;20310;-69
2022/01/14 03:49:06;;;;;;;;;;;6.20;99.90;;;;;;5135263;27;20371;-69
2022/01/14 03:51:32;;;;;;;;;;;6.20;99.90;;;;;;5139833;27;20275;-69
2022/01/14 03:53:58;;;;;;;;;;;6.30;99.90;;;;;;5161171;27;19988;-69
2022/01/14 03:56:25;;;;;;;;;;;6.20;99.90;;;;;;5135363;27;19927;-70
2022/01/14 03:58:51;;;;;;;;;;;6.30;99.90;;;;;;5134734;27;19923;-69
2022/01/14 04:01:19;;;;;;;;;;;6.30;99.90;;;;;;5153651;27;19930;-69
2022/01/14 04:03:46;;;;;;;;;;;6.30;99.90;;;;;;5154158;27;19931;-69
2022/01/14 04:06:12;;;;;;;;;;;6.30;99.90;;;;;;5157829;27;19919;-69
2022/01/14 04:08:38;;;;;;;;;;;6.30;99.90;;;;;;5153688;27;19930;-69
2022/01/14 04:11:04;;;;;;;;;;;6.30;99.90;;;;;;5152940;27;19927;-69
2022/01/14 04:13:52;;;;;;;;;;;6.60;99.90;;;;;;5137699;27;20303;-69
2022/01/14 04:16:18;;;;;;;;;;;6.30;99.90;;;;;;5165488;27;19933;-68
2022/01/14 04:18:45;;;;;;;;;;;6.30;99.90;;;;;;5154977;27;20453;-70
2022/01/14 04:21:10;;;;;;;;;;;6.30;99.90;;;;;;5155525;27;20231;-69
2022/01/14 04:23:36;;;;;;;;;;;6.30;99.90;;;;;;5162785;27;19942;-69
2022/01/14 04:26:02;;;;;;;;;;;6.20;99.90;;;;;;5157386;27;19934;-69
2022/01/14 04:28:30;;;;;;;;;;;6.20;99.90;;;;;;5155554;27;19927;-68
2022/01/14 04:30:56;;;;;;;;;;;6.20;99.90;;;;;;5173228;27;19934;-69
2022/01/14 04:33:22;;;;;;;;;;;6.20;99.90;;;;;;5137479;27;19922;-69
2022/01/14 04:35:48;;;;;;;;;;;6.10;99.90;;;;;;5172174;27;20384;-69
2022/01/14 04:38:13;;;;;;;;;;;6.10;99.90;;;;;;5141600;27;19933;-69
2022/01/14 04:40:39;;;;;;;;;;;6.10;99.90;;;;;;5152920;27;19927;-69
2022/01/14 04:43:06;;;;;;;;;;;6.10;99.90;;;;;;5120084;27;19926;-68
2022/01/14 04:48:01;;;;;;;;;;;6.10;99.90;;;;;;5154580;27;19931;-69
2022/01/14 04:50:26;;;;;;;;;;;6.10;99.90;;;;;;5134466;27;19931;-69
2022/01/14 04:52:52;;;;;;;;;;;6.10;99.90;;;;;;5100032;27;19931;-69
2022/01/14 04:55:20;;;;;;;;;;;6.10;99.90;;;;;;5152715;27;20032;-69
2022/01/14 04:57:45;;;;;;;;;;;6.30;99.90;;;;;;5138245;27;20500;-69
2022/01/14 05:00:19;;;;;;;;;;;6.00;99.90;;;;;;5154752;27;20021;-69
2022/01/14 05:02:45;;;;;;;;;;;6.00;99.90;;;;;;5148445;27;19923;-69
2022/01/14 05:05:11;;;;;;;;;;;6.10;99.90;;;;;;5133406;27;20276;-69
2022/01/14 05:07:37;;;;;;;;;;;6.10;99.90;;;;;;5152703;27;19923;-69
2022/01/14 05:12:29;;;;;;;;;;;6.10;99.90;;;;;;5154227;27;20279;-68
2022/01/14 05:14:55;;;;;;;;;;;6.10;99.90;;;;;;5163848;27;19927;-69
2022/01/14 05:17:21;;;;;;;;;;;6.10;99.90;;;;;;5152878;27;19934;-69
2022/01/14 05:19:47;;;;;;;;;;;6.10;99.90;;;;;;5128743;27;19923;-69
2022/01/14 05:22:12;;;;;;;;;;;6.00;99.90;;;;;;5153334;27;19932;-69
2022/01/14 05:24:38;;;;;;;;;;;6.10;99.90;;;;;;5154463;27;19926;-69
2022/01/14 05:27:04;;;;;;;;;;;6.10;99.90;;;;;;5153957;27;19931;-69
2022/01/14 05:29:30;;;;;;;;;;;6.10;99.90;;;;;;5167520;27;19927;-68
2022/01/14 05:32:02;;;;;;;;;;;6.10;99.90;;;;;;5133774;27;19927;-70
2022/01/14 05:34:29;;;;;;;;;;;6.10;99.90;;;;;;5135567;27;19927;-69
2022/01/14 05:36:54;;;;;;;;;;;6.10;99.90;;;;;;5151888;27;19927;-70
2022/01/14 05:39:20;;;;;;;;;;;6.10;99.90;;;;;;5152756;27;19995;-70
2022/01/14 05:41:46;;;;;;;;;;;5.70;99.90;;;;;;5135539;27;19923;-69
2022/01/14 05:44:12;;;;;;;;;;;6.20;99.90;;;;;;5133407;27;19927;-69
2022/01/14 05:46:38;;;;;;;;;;;6.10;99.90;;;;;;5135097;27;19931;-69
2022/01/14 05:51:48;;;;;;;;;;;6.10;99.90;;;;;;5148443;27;19930;-71
2022/01/14 05:54:13;;;;;;;;;;;6.00;99.90;;;;;;5136413;27;20155;-69
2022/01/14 05:56:39;;;;;;;;;;;6.00;99.90;;;;;;5134150;27;20388;-69
2022/01/14 05:59:05;;;;;;;;;;;6.10;99.90;;;;;;5134920;27;19919;-70
2022/01/14 06:01:30;;;;;;;;;;;6.10;99.90;;;;;;5141741;27;19930;-69
2022/01/14 06:03:56;;;;;;;;;;;6.10;99.90;;;;;;5137000;27;20037;-71
2022/01/14 06:06:22;;;;;;;;;;;6.10;99.90;;;;;;5155823;27;19926;-69
2022/01/14 06:08:49;;;;;;;;;;;6.10;99.90;;;;;;5154628;27;19927;-69
2022/01/14 06:11:15;;;;;;;;;;;6.10;99.90;;;;;;5153010;27;19983;-69
2022/01/14 06:13:40;;;;;;;;;;;6.10;99.90;;;;;;5149954;27;19927;-69
2022/01/14 06:16:06;;;;;;;;;;;6.10;99.90;;;;;;5155536;27;19923;-69
2022/01/14 06:18:31;;;;;;;;;;;6.10;99.90;;;;;;5154565;27;19919;-70
2022/01/14 06:20:57;;;;;;;;;;;6.10;99.90;;;;;;5136812;27;19923;-68
2022/01/14 06:23:22;;;;;;;;;;;6.10;99.90;;;;;;5141352;27;19934;-71
2022/01/14 06:25:48;;;;;;;;;;;6.10;99.90;;;;;;5133562;27;19931;-69
2022/01/14 06:28:13;;;;;;;;;;;6.10;99.90;;;;;;5132854;27;19923;-69
2022/01/14 06:30:39;;;;;;;;;;;6.20;99.90;;;;;;5134518;27;20470;-70
2022/01/14 06:33:06;;;;;;;;;;;6.10;99.90;;;;;;5138063;27;19927;-69
2022/01/14 06:35:31;;;;;;;;;;;6.20;99.90;;;;;;5154281;27;20371;-70
2022/01/14 06:37:57;;;;;;;;;;;6.10;99.90;;;;;;5154971;27;19934;-69
2022/01/14 06:40:23;;;;;;;;;;;6.10;99.90;;;;;;5153390;27;20031;-70
2022/01/14 06:42:50;;;;;;;;;;;6.10;99.90;;;;;;5138083;27;19938;-69
2022/01/14 06:45:16;;;;;;;;;;;6.20;99.90;;;;;;5145121;27;19930;-69
2022/01/14 06:47:41;;;;;;;;;;;6.10;99.90;;;;;;5134475;27;19923;-69
2022/01/14 06:50:07;;;;;;;;;;;6.20;99.90;;;;;;5133930;27;20021;-68
2022/01/14 06:52:33;;;;;;;;;;;6.10;99.90;;;;;;5144839;27;20372;-69
2022/01/14 06:54:58;;;;;;;;;;;6.20;99.90;;;;;;5152499;27;20409;-68
2022/01/14 06:57:24;;;;;;;;;;;6.20;99.90;;;;;;5143849;27;19934;-69
2022/01/14 06:59:50;;;;;;;;;;;6.20;99.90;;;;;;5136580;27;19993;-70
2022/01/14 07:02:15;;;;;;;;;;;6.20;99.90;;;;;;5135604;27;20427;-69
2022/01/14 07:04:41;;;;;;;;;;;6.20;99.90;;;;;;5133127;27;19935;-68
2022/01/14 07:07:07;;;;;;;;;;;6.20;99.90;;;;;;5132887;27;20014;-69
2022/01/14 07:09:56;;;;;;;;;;;6.20;99.90;;;;;;5132546;27;19934;-71
2022/01/14 07:12:18;;;;;;;;;;;6.20;99.90;;;;;;5132178;27;19927;-69
2022/01/14 07:14:43;;;;;;;;;;;6.20;99.90;;;;;;5136347;27;19927;-68
2022/01/14 07:17:09;;;;;;;;;;;6.20;99.90;;;;;;5151248;27;19931;-69
2022/01/14 07:19:34;;;;;;;;;;;6.20;99.90;;;;;;5135564;27;19923;-68
2022/01/14 07:22:00;;;;;;;;;;;6.30;99.90;;;;;;5120348;27;19924;-69
2022/01/14 07:24:26;;;;;;;;;;;6.30;99.90;;;;;;5133203;27;20039;-66
2022/01/14 07:26:51;;;;;;;;;;;6.30;99.90;;;;;;5134063;27;19931;-69
2022/01/14 07:29:17;;;;;;;;;;;6.30;99.90;;;;;;5101024;27;19967;-69
2022/01/14 07:31:42;;;;;;;;;;;6.30;99.90;;;;;;5132655;27;20442;-68
2022/01/14 07:34:08;;;;;;;;;;;6.30;99.90;;;;;;5132332;27;19923;-69
2022/01/14 07:36:34;;;;;;;;;;;6.30;99.90;;;;;;5133779;27;19934;-69
2022/01/14 07:39:00;;;;;;;;;;;6.30;99.90;;;;;;5141073;27;19975;-68
2022/01/14 07:41:25;;;;;;;;;;;6.30;99.90;;;;;;5131778;27;20233;-68
2022/01/14 07:43:51;;;;;;;;;;;6.30;99.90;;;;;;5133086;27;19928;-69
2022/01/14 07:46:16;;;;;;;;;;;6.40;99.90;;;;;;5135754;27;19922;-68
2022/01/14 07:48:42;;;;;;;;;;;6.40;99.90;;;;;;5135279;27;19937;-68
2022/01/14 07:51:11;;;;;;;;;;;6.40;99.90;;;;;;5156008;27;19992;-68
2022/01/14 07:53:37;;;;;;;;;;;6.40;99.90;;;;;;5173457;27;19927;-68
2022/01/14 07:56:05;;;;;;;;;;;6.40;99.90;;;;;;5154242;27;19923;-67
2022/01/14 07:58:30;;;;;;;;;;;6.40;99.90;;;;;;5117981;27;20384;-67
2022/01/14 08:00:56;;;;;;;;;;;6.40;99.90;;;;;;5132618;27;19934;-69
2022/01/14 08:03:22;;;;;;;;;;;6.40;99.90;;;;;;5143623;27;19927;-68
2022/01/14 08:05:49;;;;;;;;;;;6.50;99.90;;;;;;5101890;27;19927;-68
2022/01/14 08:08:15;;;;;;;;;;;6.40;99.90;;;;;;5134846;27;19927;-68
2022/01/14 08:10:40;;;;;;;;;;;6.40;99.90;;;;;;5138940;27;19946;-67
2022/01/14 08:13:06;;;;;;;;;;;6.40;99.90;;;;;;5132687;27;20348;-70
2022/01/14 08:15:32;;;;;;;;;;;6.40;99.90;;;;;;5156462;27;19978;-67
2022/01/14 08:18:00;;;;;;;;;;;6.40;99.90;;;;;;5167244;27;19923;-68
2022/01/14 08:20:25;;;;;;;;;;;6.40;99.90;;;;;;5151890;27;19926;-68
2022/01/14 08:22:51;;;;;;;;;;;6.50;99.90;;;;;;5134300;27;19950;-68
2022/01/14 08:25:16;;;;;;;;;;;6.90;99.90;;;;;;5148020;27;19958;-71
2022/01/14 08:27:42;;;;;;;;;;;6.90;99.90;;;;;;5147925;27;19987;-69
2022/01/14 08:30:08;;;;;;;;;;;6.80;99.90;;;;;;5153073;27;20003;-69
2022/01/14 08:32:34;;;;;;;;;;;6.80;99.90;;;;;;5147367;27;20008;-70
2022/01/14 08:34:59;;;;;;;;;;;6.80;99.90;;;;;;5133856;27;19940;-68
2022/01/14 08:37:25;;;;;;;;;;;6.70;99.90;;;;;;5141997;27;20415;-69
2022/01/14 08:39:51;;;;;;;;;;;6.70;99.90;;;;;;5119712;27;19934;-68
2022/01/14 08:42:17;;;;;;;;;;;6.60;99.90;;;;;;5154266;27;19956;-68
2022/01/14 08:44:43;;;;;;;;;;;6.60;99.90;;;;;;5163375;27;19923;-68
2022/01/14 08:47:09;;;;;;;;;;;6.70;99.90;;;;;;5153816;27;20260;-68
2022/01/14 08:49:39;;;;;;;;;;;6.60;99.90;;;;;;5148372;27;19923;-70
2022/01/14 08:52:05;;;;;;;;;;;6.70;99.90;;;;;;5133559;27;19923;-69
2022/01/14 08:54:30;;;;;;;;;;;6.60;99.90;;;;;;5132804;27;19950;-69
2022/01/14 08:56:56;;;;;;;;;;;6.70;99.90;;;;;;5151905;27;19954;-70
2022/01/14 08:59:22;;;;;;;;;;;6.70;99.90;;;;;;5149241;27;20009;-70
2022/01/14 09:01:48;;;;;;;;;;;6.70;99.90;;;;;;5159950;27;20488;-70
2022/01/14 09:04:14;;;;;;;;;;;6.70;99.90;;;;;;5133823;27;20314;-69
2022/01/14 09:06:40;;;;;;;;;;;6.70;99.90;;;;;;5132468;27;19976;-69
2022/01/14 09:09:06;;;;;;;;;;;6.80;99.90;;;;;;5123617;27;19966;-70
2022/01/14 09:11:33;;;;;;;;;;;6.80;99.90;;;;;;5156717;27;19933;-69
2022/01/14 09:13:58;;;;;;;;;;;6.80;99.90;;;;;;5154512;27;19927;-69
2022/01/14 09:16:24;;;;;;;;;;;6.80;99.90;;;;;;5130605;27;19923;-71
2022/01/14 09:18:50;;;;;;;;;;;6.90;99.90;;;;;;5164528;27;19926;-69
2022/01/14 09:21:16;;;;;;;;;;;6.90;99.90;;;;;;5137932;27;19927;-68
2022/01/14 09:23:50;;;;;;;;;;;7.00;99.90;;;;;;5129607;27;19927;-69
2022/01/14 09:26:16;;;;;;;;;;;7.00;99.90;;;;;;5137621;27;20410;-69
2022/01/14 09:28:42;;;;;;;;;;;7.00;99.90;;;;;;5121078;27;19923;-69
2022/01/14 09:31:08;;;;;;;;;;;7.00;99.90;;;;;;5138963;27;19943;-68
2022/01/14 09:33:34;;;;;;;;;;;7.10;99.90;;;;;;5156559;27;19957;-68
2022/01/14 09:36:00;;;;;;;;;;;7.10;99.90;;;;;;5137364;27;19956;-68
2022/01/14 09:38:25;;;;;;;;;;;7.10;99.90;;;;;;5137162;27;20304;-69
2022/01/14 09:40:58;;;;;;;;;;;7.10;99.90;;;;;;5156773;27;19923;-68
2022/01/14 09:43:25;;;;;;;;;;;7.10;99.90;;;;;;5174505;27;19983;-68
2022/01/14 09:45:51;;;;;;;;;;;7.20;99.90;;;;;;5163614;27;19923;-69
2022/01/14 09:48:17;;;;;;;;;;;7.20;99.90;;;;;;5156078;27;19968;-68
2022/01/14 09:50:43;;;;;;;;;;;7.20;99.90;;;;;;5158687;27;20329;-68
2022/01/14 09:53:10;;;;;;;;;;;7.20;99.90;;;;;;5141150;27;19923;-69
2022/01/14 09:55:36;;;;;;;;;;;7.30;99.90;;;;;;5144192;27;20394;-69
2022/01/14 09:58:01;;;;;;;;;;;7.30;99.90;;;;;;5157048;27;19923;-68
2022/01/14 10:00:27;;;;;;;;;;;7.30;99.90;;;;;;5165189;27;19992;-67
2022/01/14 10:02:52;;;;;;;;;;;7.30;99.90;;;;;;5138157;27;20125;-68
2022/01/14 10:05:34;;;;;;;;;;;7.30;99.90;;;;;;5155403;27;20393;-69
2022/01/14 10:08:29;;;;;;;;;;;7.30;99.90;;;;;;5119584;27;19931;-76
2022/01/14 10:11:00;;;;;;;;;;;7.40;99.90;;;;;;5114873;27;19927;-71
2022/01/14 10:13:28;;;;;;;;;;;7.40;99.90;;;;;;5149539;27;20105;-71
2022/01/14 10:16:00;;;;;;;;;;;7.40;99.90;;;;;;5150440;27;19976;-70
2022/01/14 10:18:26;;;;;;;;;;;7.40;99.90;;;;;;5166350;27;19960;-70
2022/01/14 10:20:51;;;;;;;;;;;7.30;99.90;;;;;;5120700;27;19927;-70
2022/01/14 10:23:37;;;;;;;;;;;7.30;99.90;;;;;;5133080;27;20287;-70
2022/01/14 10:26:04;;;;;;;;;;;7.30;99.90;;;;;;5155378;27;20287;-71
2022/01/14 10:28:30;;;;;;;;;;;7.30;99.90;;;;;;5119227;27;20340;-71
2022/01/14 10:30:55;;;;;;;;;;;7.30;99.90;;;;;;5142768;27;20009;-72
2022/01/14 10:33:25;;;;;;;;;;;7.30;99.90;;;;;;5144314;27;20009;-70
2022/01/14 10:35:51;;;;;;;;;;;7.30;99.90;;;;;;5135901;27;20256;-71
2022/01/14 10:38:19;;;;;;;;;;;7.30;99.90;;;;;;5118513;27;19933;-69
2022/01/14 10:40:44;;;;;;;;;;;7.30;99.90;;;;;;5138646;27;20287;-68
2022/01/14 10:43:11;;;;;;;;;;;7.40;99.90;;;;;;5141359;27;19934;-69
2022/01/14 10:45:37;;;;;;;;;;;7.40;99.90;;;;;;5175199;27;20310;-71
2022/01/14 10:48:07;;;;;;;;;;;7.40;99.90;;;;;;5139093;27;20298;-70
2022/01/14 10:50:42;;;;;;;;;;;7.50;99.90;;;;;;5136446;27;19970;-70
2022/01/14 10:53:13;;;;;;;;;;;7.50;99.90;;;;;;5120857;27;19929;-71
2022/01/14 10:55:41;;;;;;;;;;;7.50;99.90;;;;;;5153197;27;20038;-71
2022/01/14 10:58:11;;;;;;;;;;;7.50;99.90;;;;;;5153799;27;19980;-69
2022/01/14 11:00:39;;;;;;;;;;;7.50;99.90;;;;;;5134808;27;20391;-70
2022/01/14 11:03:04;;;;;;;;;;;7.50;99.90;;;;;;5136267;27;19927;-69
2022/01/14 11:05:31;;;;;;;;;;;7.50;99.90;;;;;;5150878;27;20379;-70
2022/01/14 11:07:56;;;;;;;;;;;7.50;99.90;;;;;;5156411;27;19966;-70
2022/01/14 11:10:23;;;;;;;;;;;7.50;99.90;;;;;;5135391;27;20394;-71
2022/01/14 11:12:50;;;;;;;;;;;7.50;99.90;;;;;;5136648;27;19930;-72
2022/01/14 11:15:16;;;;;;;;;;;7.60;99.90;;;;;;5118962;27;19929;-70
2022/01/14 11:17:43;;;;;;;;;;;7.60;99.90;;;;;;5154315;27;19934;-71
2022/01/14 11:20:10;;;;;;;;;;;7.50;99.90;;;;;;5123446;27;20395;-70
2022/01/14 11:25:20;;;;;;;;;;;7.60;99.90;;;;;;5135302;27;19931;-70
2022/01/14 11:27:52;;;;;;;;;;;7.60;99.90;;;;;;5149898;27;19923;-73
2022/01/14 11:30:17;;;;;;;;;;;7.60;99.90;;;;;;5141872;27;19923;-71
2022/01/14 11:32:56;;;;;;;;;;;7.60;99.90;;;;;;5154173;27;19927;-73
2022/01/14 11:35:23;;;;;;;;;;;7.60;99.90;;;;;;5155283;27;20430;-69
2022/01/14 11:37:49;;;;;;;;;;;7.70;99.90;;;;;;5140183;27;20402;-71
2022/01/14 11:40:15;;;;;;;;;;;7.60;99.90;;;;;;5154951;27;19922;-71
2022/01/14 11:42:48;;;;;;;;;;;7.80;99.90;;;;;;5155209;27;19933;-70
2022/01/14 11:45:15;;;;;;;;;;;7.70;99.90;;;;;;5165074;27;19923;-71
2022/01/14 11:47:45;;;;;;;;;;;7.70;99.90;;;;;;5135912;27;20303;-72
2022/01/14 11:50:23;;;;;;;;;;;7.70;99.90;;;;;;5137341;27;19927;-72
2022/01/14 11:52:49;;;;;;;;;;;7.70;99.90;;;;;;5153307;27;19930;-72
2022/01/14 11:55:14;;;;;;;;;;;7.80;99.90;;;;;;5142972;27;19923;-72
2022/01/14 11:57:45;;;;;;;;;;;7.70;99.90;;;;;;5149738;27;20344;-72
2022/01/14 12:03:15;;;;;;;;;;;7.80;99.90;;;;;;5140193;27;20347;-71
2022/01/14 12:05:44;;;;;;;;;;;7.80;99.90;;;;;;5144649;27;19927;-72
2022/01/14 12:08:11;;;;;;;;;;;7.80;99.90;;;;;;5172753;27;19927;-70
2022/01/14 12:10:42;;;;;;;;;;;7.80;99.90;;;;;;5155680;27;19949;-70
2022/01/14 12:13:37;;;;;;;;;;;7.80;99.90;;;;;;5153225;27;19922;-69
2022/01/14 12:16:05;;;;;;;;;;;7.80;99.90;;;;;;5171521;27;19930;-69
2022/01/14 12:18:50;;;;;;;;;;;7.80;99.90;;;;;;5154386;27;19923;-69
2022/01/14 12:21:16;;;;;;;;;;;7.80;99.90;;;;;;5153289;27;20027;-69
2022/01/14 12:23:41;;;;;;;;;;;7.80;99.90;;;;;;5165208;27;19947;-69
2022/01/14 12:26:15;;;;;;;;;;;7.70;99.90;;;;;;5129542;27;19927;-70
2022/01/14 12:28:41;;;;;;;;;;;7.70;99.90;;;;;;5134443;27;19923;-70
2022/01/14 12:31:07;;;;;;;;;;;7.70;99.90;;;;;;5134108;27;19934;-69
2022/01/14 12:33:40;;;;;;;;;;;7.80;99.90;;;;;;5157683;27;20374;-70
2022/01/14 12:36:13;;;;;;;;;;;7.70;99.90;;;;;;5152462;27;19927;-69
2022/01/14 12:38:39;;;;;;;;;;;7.70;99.90;;;;;;5134811;27;19923;-69
2022/01/14 12:41:13;;;;;;;;;;;7.80;99.90;;;;;;5117053;27;19971;-70
2022/01/14 12:43:46;;;;;;;;;;;7.80;99.90;;;;;;5156687;27;19929;-70
2022/01/14 12:46:24;;;;;;;;;;;7.80;99.90;;;;;;5153325;27;19930;-69
2022/01/14 12:48:56;;;;;;;;;;;7.80;99.90;;;;;;5139694;27;19931;-69
2022/01/14 12:51:22;;;;;;;;;;;7.80;99.90;;;;;;5134016;27;19923;-70
2022/01/14 12:53:55;;;;;;;;;;;7.80;99.90;;;;;;5119501;27;19937;-69
2022/01/14 12:56:22;;;;;;;;;;;7.80;99.90;;;;;;5171583;27;19931;-69
2022/01/14 12:58:55;;;;;;;;;;;7.80;99.90;;;;;;5168757;27;19927;-69
2022/01/14 13:01:25;;;;;;;;;;;7.80;99.90;;;;;;5152849;27;19923;-69
2022/01/14 13:03:52;;;;;;;;;;;7.80;99.90;;;;;;5117011;27;20465;-69
2022/01/14 13:06:18;;;;;;;;;;;7.80;99.90;;;;;;5153432;27;20293;-69
2022/01/14 13:08:51;;;;;;;;;;;7.80;99.90;;;;;;5152275;27;19927;-69
2022/01/14 13:11:16;;;;;;;;;;;7.80;99.90;;;;;;5153905;27;19926;-69
2022/01/14 13:13:42;;;;;;;;;;;7.80;99.90;;;;;;5155046;27;19923;-69
2022/01/14 13:16:09;;;;;;;;;;;7.80;99.90;;;;;;5131066;27;19977;-69
2022/01/14 13:18:44;;;;;;;;;;;7.80;99.90;;;;;;5152258;27;20256;-75
2022/01/14 13:21:10;;;;;;;;;;;8.00;99.90;;;;;;5158450;27;19933;-76
2022/01/14 13:23:35;;;;;;;;;;;8.10;99.90;;;;;;5144891;27;20013;-74
2022/01/14 13:26:01;;;;;;;;;;;8.20;99.90;;;;;;5143469;27;19979;-74
2022/01/14 13:28:27;;;;;;;;;;;8.20;99.90;;;;;;5134299;27;19974;-75
2022/01/14 13:30:53;;;;;;;;;;;8.20;99.90;;;;;;5141189;27;19922;-72
2022/01/14 13:33:20;;;;;;;;;;;8.20;99.90;;;;;;5154096;27;19927;-73
2022/01/14 13:35:47;;;;;;;;;;;8.20;99.90;;;;;;5135056;27;20007;-76
2022/01/14 13:38:14;;;;;;;;;;;8.10;99.90;;;;;;5146283;27;19933;-70
2022/01/14 13:40:48;;;;;;;;;;;8.20;99.90;;;;;;5135545;27;20410;-71
2022/01/14 13:43:14;;;;;;;;;;;8.10;99.90;;;;;;5151923;27;19927;-71
2022/01/14 13:45:41;;;;;;;;;;;8.10;99.90;;;;;;5130441;27;19927;-70
2022/01/14 13:48:10;;;;;;;;;;;8.10;99.90;;;;;;5141910;27;20286;-71
2022/01/14 13:50:37;;;;;;;;;;;8.00;99.90;;;;;;5153090;27;19976;-72
2022/01/14 13:53:03;;;;;;;;;;;8.00;99.90;;;;;;5120810;27;20014;-72
2022/01/14 13:55:31;;;;;;;;;;;8.00;99.90;;;;;;5135829;27;19993;-72
2022/01/14 13:58:03;;;;;;;;;;;8.00;99.90;;;;;;5128013;27;19930;-72
2022/01/14 14:00:30;;;;;;;;;;;8.00;99.90;;;;;;5126898;27;20016;-67
2022/01/14 14:02:56;;;;;;;;;;;7.90;99.90;;;;;;5134995;27;19923;-70
2022/01/14 14:05:39;;;;;;;;;;;8.00;99.90;;;;;;5119518;27;20420;-71
2022/01/14 14:08:10;;;;;;;;;;;8.00;99.90;;;;;;5137570;27;19926;-72
2022/01/14 14:11:47;;;;;;;;;;;8.00;99.90;;;;;;5161027;27;19970;-70
2022/01/14 14:15:39;;;;;;;;;;;8.00;99.90;;;;;;5144235;27;19930;-70
2022/01/14 14:16:27;;;;;;;;;;;7.90;99.90;;;;;;5136602;27;19927;-69
2022/01/14 14:18:56;;;;;;;;;;;7.90;99.90;;;;;;5166572;27;19931;-70
2022/01/14 14:21:22;;;;;;;;;;;7.90;99.90;;;;;;5157495;27;20017;-70
2022/01/14 14:23:57;;;;;;;;;;;7.90;99.90;;;;;;5163100;27;20017;-69
2022/01/14 14:26:30;;;;;;;;;;;7.90;99.90;;;;;;5167886;27;19967;-69
2022/01/14 14:28:59;;;;;;;;;;;7.90;99.90;;;;;;5133012;27;19974;-68
2022/01/14 14:31:26;;;;;;;;;;;7.90;99.90;;;;;;5136668;27;20372;-69
2022/01/14 14:33:52;;;;;;;;;;;7.90;99.90;;;;;;5156360;27;20292;-67
2022/01/14 14:36:18;;;;;;;;;;;7.90;99.90;;;;;;5137216;27;19923;-67
2022/01/14 14:38:46;;;;;;;;;;;7.90;99.90;;;;;;5161296;27;19942;-65
2022/01/14 14:41:11;;;;;;;;;;;7.90;99.90;;;;;;5165485;27;20406;-68
2022/01/14 14:43:38;;;;;;;;;;;7.90;99.90;;;;;;5136552;27;19931;-68
2022/01/14 14:46:04;;;;;;;;;;;7.80;99.90;;;;;;5173060;27;19951;-67
2022/01/14 14:48:30;;;;;;;;;;;7.80;99.90;;;;;;5168427;27;19985;-68
2022/01/14 14:50:55;;;;;;;;;;;7.80;99.90;;;;;;5154847;27;19970;-68
2022/01/14 14:53:21;;;;;;;;;;;7.80;99.90;;;;;;5154401;27;20373;-69
2022/01/14 14:55:47;;;;;;;;;;;7.80;99.90;;;;;;5166243;27;19927;-67
2022/01/14 14:58:12;;;;;;;;;;;7.70;99.90;;;;;;5137633;27;20286;-68
2022/01/14 15:00:38;;;;;;;;;;;7.80;99.90;;;;;;5121221;27;20006;-68
2022/01/14 15:03:06;;;;;;;;;;;7.80;99.90;;;;;;5154328;27;19954;-68
2022/01/14 15:05:31;;;;;;;;;;;7.80;99.90;;;;;;5155110;27;20258;-69
2022/01/14 15:07:57;;;;;;;;;;;7.80;99.90;;;;;;5158610;27;19966;-68
2022/01/14 15:10:24;;;;;;;;;;;7.80;99.90;;;;;;5137230;27;19923;-68
2022/01/14 15:12:50;;;;;;;;;;;7.80;99.90;;;;;;5155997;27;20017;-74